sensor_id;sensor_type;location;lat;lon;timestamp;temperature;humidity
4828;DHT22;2428;48.732;9.148;2023-04-16T00:01:11;6.90;99.90
4828;DHT22;2428;48.732;9.148;2023-04-16T00:03:36;6.90;99.90
4828;DHT22;2428;48.732;9.148;2023-04-16T00:06:02;6.90;99.90
4828;DHT22;2428;48.732;9.148;2023-04-16T00:08:28;7.00;99.90
4828;DHT22;2428;48.732;9.148;2023-04-16T00:10:53;6.90;99.90
4828;DHT22;2428;48.732;9.148;2023-04-16T00:13:19;6.90;99.90
4828;DHT22;2428;48.732;9.148;2023-04-16T00:15:45;6.90;99.90
4828;DHT22;2428;48.732;9.148;2023-04-16T00:18:11;6.90;99.90
4828;DHT22;2428;48.732;9.148;2023-04-16T00:20:36;6.90;99.90
4828;DHT22;2428;48.732;9.148;2023-04-16T00:23:02;6.90;99.90
4828;DHT22;2428;48.732;9.148;2023-04-16T00:25:27;7.00;99.90
4828;DHT22;2428;48.732;9.148;2023-04-16T00:27:53;6.90;99.90
4828;DHT22;2428;48.732;9.148;2023-04-16T00:30:19;6.90;99.90
4828;DHT22;2428;48.732;9.148;2023-04-16T00:32:44;7.00;99.90
4828;DHT22;2428;48.732;9.148;2023-04-16T00:35:10;7.00;99.90
4828;DHT22;2428;48.732;9.148;2023-04-16T00:37:35;7.00;99.90
4828;DHT22;2428;48.732;9.148;2023-04-16T00:40:01;7.00;99.90
4828;DHT22;2428;48.732;9.148;2023-04-16T00:42:26;7.00;99.90
4828;DHT22;2428;48.732;9.148;2023-04-16T00:44:52;6.90;99.90
4828;DHT22;2428;48.732;9.148;2023-04-16T00:47:19;6.90;99.90
4828;DHT22;2428;48.732;9.148;2023-04-16T00:49:46;7.00;99.90
4828;DHT22;2428;48.732;9.148;2023-04-16T00:52:11;7.00;99.90
4828;DHT22;2428;48.732;9.148;2023-04-16T00:54:38;6.90;99.90
4828;DHT22;2428;48.732;9.148;2023-04-16T00:57:04;6.90;99.90
4828;DHT22;2428;48.732;9.148;2023-04-16T00:59:30;6.90;99.90
4828;DHT22;2428;48.732;9.148;2023-04-16T01:01:56;7.00;99.90
4828;DHT22;2428;48.732;9.148;2023-04-16T01:04:22;6.90;99.90
4828;DHT22;2428;48.732;9.148;2023-04-16T01:06:48;7.00;99.90
4828;DHT22;2428;48.732;9.148;2023-04-16T01:09:13;7.00;99.90
4828;DHT22;2428;48.732;9.148;2023-04-16T01:11:39;7.00;99.90
4828;DHT22;2428;48.732;9.148;2023-04-16T01:14:05;7.00;99.90
4828;DHT22;2428;48.732;9.148;2023-04-16T01:16:31;7.00;99.90
4828;DHT22;2428;48.732;9.148;2023-04-16T01:18:57;7.00;99.90
4828;DHT22;2428;48.732;9.148;2023-04-16T01:21:22;7.00;99.90
4828;DHT22;2428;48.732;9.148;2023-04-16T01:23:48;7.00;99.90
4828;DHT22;2428;48.732;9.148;2023-04-16T01:26:13;6.90;99.90
4828;DHT22;2428;48.732;9.148;2023-04-16T01:28:39;7.00;99.90
4828;DHT22;2428;48.732;9.148;2023-04-16T01:31:05;6.90;99.90
4828;DHT22;2428;48.732;9.148;2023-04-16T01:33:31;6.90;99.90
4828;DHT22;2428;48.732;9.148;2023-04-16T01:35:56;7.00;99.90
4828;DHT22;2428;48.732;9.148;2023-04-16T01:38:22;7.00;99.90
4828;DHT22;2428;48.732;9.148;2023-04-16T01:40:47;7.00;99.90
4828;DHT22;2428;48.732;9.148;2023-04-16T01:43:13;7.00;99.90
4828;DHT22;2428;48.732;9.148;2023-04-16T01:45:38;7.00;99.90
4828;DHT22;2428;48.732;9.148;2023-04-16T01:48:04;7.00;99.90
4828;DHT22;2428;48.732;9.148;2023-04-16T01:50:30;7.00;99.90
4828;DHT22;2428;48.732;9.148;2023-04-16T01:52:56;7.00;99.90
4828;DHT22;2428;48.732;9.148;2023-04-16T01:55:22;7.00;99.90
4828;DHT22;2428;48.732;9.148;2023-04-16T01:57:47;6.90;99.90
4828;DHT22;2428;48.732;9.148;2023-04-16T02:00:13;6.90;99.90
4828;DHT22;2428;48.732;9.148;2023-04-16T02:02:39;7.00;99.90
4828;DHT22;2428;48.732;9.148;2023-04-16T02:05:05;6.90;99.90
4828;DHT22;2428;48.732;9.148;2023-04-16T02:07:30;6.90;99.90
4828;DHT22;2428;48.732;9.148;2023-04-16T02:09:56;6.90;99.90
4828;DHT22;2428;48.732;9.148;2023-04-16T02:12:22;7.00;99.90
4828;DHT22;2428;48.732;9.148;2023-04-16T02:14:48;7.00;99.90
4828;DHT22;2428;48.732;9.148;2023-04-16T02:17:14;6.90;99.90
4828;DHT22;2428;48.732;9.148;2023-04-16T02:19:40;6.90;99.90
4828;DHT22;2428;48.732;9.148;2023-04-16T02:22:05;6.90;99.90
4828;DHT22;2428;48.732;9.148;2023-04-16T02:24:31;6.90;99.90
4828;DHT22;2428;48.732;9.148;2023-04-16T02:26:57;6.90;99.90
4828;DHT22;2428;48.732;9.148;2023-04-16T02:29:22;6.90;99.90
4828;DHT22;2428;48.732;9.148;2023-04-16T02:31:48;6.90;99.90
4828;DHT22;2428;48.732;9.148;2023-04-16T02:34:14;7.00;99.90
4828;DHT22;2428;48.732;9.148;2023-04-16T02:36:40;6.90;99.90
4828;DHT22;2428;48.732;9.148;2023-04-16T02:39:06;6.90;99.90
4828;DHT22;2428;48.732;9.148;2023-04-16T02:41:32;6.90;99.90
4828;DHT22;2428;48.732;9.148;2023-04-16T02:43:57;6.90;99.90
4828;DHT22;2428;48.732;9.148;2023-04-16T02:46:23;6.90;99.90
4828;DHT22;2428;48.732;9.148;2023-04-16T02:48:48;6.90;99.90
4828;DHT22;2428;48.732;9.148;2023-04-16T02:51:14;6.90;99.90
4828;DHT22;2428;48.732;9.148;2023-04-16T02:53:40;6.90;99.90
4828;DHT22;2428;48.732;9.148;2023-04-16T02:56:09;6.90;99.90
4828;DHT22;2428;48.732;9.148;2023-04-16T02:58:35;6.90;99.90
4828;DHT22;2428;48.732;9.148;2023-04-16T03:01:00;6.90;99.90
4828;DHT22;2428;48.732;9.148;2023-04-16T03:03:26;6.90;99.90
4828;DHT22;2428;48.732;9.148;2023-04-16T03:05:52;6.90;99.90
4828;DHT22;2428;48.732;9.148;2023-04-16T03:08:17;6.90;99.90
4828;DHT22;2428;48.732;9.148;2023-04-16T03:10:43;6.90;99.90
4828;DHT22;2428;48.732;9.148;2023-04-16T03:13:08;6.90;99.90
4828;DHT22;2428;48.732;9.148;2023-04-16T03:15:34;6.90;99.90
4828;DHT22;2428;48.732;9.148;2023-04-16T03:18:00;6.90;99.90
4828;DHT22;2428;48.732;9.148;2023-04-16T03:20:25;6.90;99.90
4828;DHT22;2428;48.732;9.148;2023-04-16T03:22:51;6.90;99.90
4828;DHT22;2428;48.732;9.148;2023-04-16T03:25:17;6.90;99.90
4828;DHT22;2428;48.732;9.148;2023-04-16T03:27:43;6.90;99.90
4828;DHT22;2428;48.732;9.148;2023-04-16T03:30:12;6.90;99.90
4828;DHT22;2428;48.732;9.148;2023-04-16T03:32:39;6.90;99.90
4828;DHT22;2428;48.732;9.148;2023-04-16T03:35:05;6.90;99.90
4828;DHT22;2428;48.732;9.148;2023-04-16T03:37:31;6.90;99.90
4828;DHT22;2428;48.732;9.148;2023-04-16T03:39:57;6.90;99.90
4828;DHT22;2428;48.732;9.148;2023-04-16T03:42:23;6.90;99.90
4828;DHT22;2428;48.732;9.148;2023-04-16T03:44:48;6.90;99.90
4828;DHT22;2428;48.732;9.148;2023-04-16T03:47:14;6.90;99.90
4828;DHT22;2428;48.732;9.148;2023-04-16T03:49:39;6.90;99.90
4828;DHT22;2428;48.732;9.148;2023-04-16T03:52:05;6.90;99.90
4828;DHT22;2428;48.732;9.148;2023-04-16T03:54:31;6.90;99.90
4828;DHT22;2428;48.732;9.148;2023-04-16T03:56:56;6.80;99.90
4828;DHT22;2428;48.732;9.148;2023-04-16T03:59:22;6.80;99.90
4828;DHT22;2428;48.732;9.148;2023-04-16T04:01:47;6.80;99.90
4828;DHT22;2428;48.732;9.148;2023-04-16T04:04:13;6.80;99.90
4828;DHT22;2428;48.732;9.148;2023-04-16T04:06:39;6.80;99.90
4828;DHT22;2428;48.732;9.148;2023-04-16T04:09:05;6.80;99.90
4828;DHT22;2428;48.732;9.148;2023-04-16T04:11:31;6.80;99.90
4828;DHT22;2428;48.732;9.148;2023-04-16T04:13:56;6.70;99.90
4828;DHT22;2428;48.732;9.148;2023-04-16T04:16:22;6.80;99.90
4828;DHT22;2428;48.732;9.148;2023-04-16T04:18:47;6.80;99.90
4828;DHT22;2428;48.732;9.148;2023-04-16T04:21:13;6.80;99.90
4828;DHT22;2428;48.732;9.148;2023-04-16T04:23:38;6.70;99.90
4828;DHT22;2428;48.732;9.148;2023-04-16T04:26:06;6.80;99.90
4828;DHT22;2428;48.732;9.148;2023-04-16T04:28:32;6.80;99.90
4828;DHT22;2428;48.732;9.148;2023-04-16T04:30:58;6.80;99.90
4828;DHT22;2428;48.732;9.148;2023-04-16T04:33:24;6.80;99.90
4828;DHT22;2428;48.732;9.148;2023-04-16T04:35:51;6.80;99.90
4828;DHT22;2428;48.732;9.148;2023-04-16T04:38:16;6.80;99.90
4828;DHT22;2428;48.732;9.148;2023-04-16T04:40:47;6.80;99.90
4828;DHT22;2428;48.732;9.148;2023-04-16T04:43:13;6.80;99.90
4828;DHT22;2428;48.732;9.148;2023-04-16T04:45:39;6.80;99.90
4828;DHT22;2428;48.732;9.148;2023-04-16T04:48:05;6.80;99.90
4828;DHT22;2428;48.732;9.148;2023-04-16T04:50:30;6.80;99.90
4828;DHT22;2428;48.732;9.148;2023-04-16T04:52:56;6.80;99.90
4828;DHT22;2428;48.732;9.148;2023-04-16T04:55:22;6.80;99.90
4828;DHT22;2428;48.732;9.148;2023-04-16T04:57:48;6.80;99.90
4828;DHT22;2428;48.732;9.148;2023-04-16T05:00:14;6.80;99.90
4828;DHT22;2428;48.732;9.148;2023-04-16T05:02:40;6.70;99.90
4828;DHT22;2428;48.732;9.148;2023-04-16T05:05:06;6.70;99.90
4828;DHT22;2428;48.732;9.148;2023-04-16T05:07:31;6.80;99.90
4828;DHT22;2428;48.732;9.148;2023-04-16T05:09:57;6.80;99.90
4828;DHT22;2428;48.732;9.148;2023-04-16T05:12:23;6.80;99.90
4828;DHT22;2428;48.732;9.148;2023-04-16T05:14:48;6.80;99.90
4828;DHT22;2428;48.732;9.148;2023-04-16T05:17:14;6.70;99.90
4828;DHT22;2428;48.732;9.148;2023-04-16T05:19:39;6.70;99.90
4828;DHT22;2428;48.732;9.148;2023-04-16T05:22:05;6.70;99.90
4828;DHT22;2428;48.732;9.148;2023-04-16T05:24:31;6.70;99.90
4828;DHT22;2428;48.732;9.148;2023-04-16T05:26:56;6.70;99.90
4828;DHT22;2428;48.732;9.148;2023-04-16T05:29:22;6.70;99.90
4828;DHT22;2428;48.732;9.148;2023-04-16T05:31:48;6.80;99.90
4828;DHT22;2428;48.732;9.148;2023-04-16T05:34:14;6.70;99.90
4828;DHT22;2428;48.732;9.148;2023-04-16T05:36:39;6.80;99.90
4828;DHT22;2428;48.732;9.148;2023-04-16T05:39:05;6.80;99.90
4828;DHT22;2428;48.732;9.148;2023-04-16T05:41:32;6.70;99.90
4828;DHT22;2428;48.732;9.148;2023-04-16T05:43:58;6.70;99.90
4828;DHT22;2428;48.732;9.148;2023-04-16T05:46:23;6.70;99.90
4828;DHT22;2428;48.732;9.148;2023-04-16T05:48:49;6.70;99.90
4828;DHT22;2428;48.732;9.148;2023-04-16T05:51:14;6.70;99.90
4828;DHT22;2428;48.732;9.148;2023-04-16T05:53:40;6.70;99.90
4828;DHT22;2428;48.732;9.148;2023-04-16T05:56:06;6.70;99.90
4828;DHT22;2428;48.732;9.148;2023-04-16T05:58:32;6.70;99.90
4828;DHT22;2428;48.732;9.148;2023-04-16T06:00:58;6.70;99.90
4828;DHT22;2428;48.732;9.148;2023-04-16T06:03:24;6.70;99.90
4828;DHT22;2428;48.732;9.148;2023-04-16T06:05:49;6.70;99.90
4828;DHT22;2428;48.732;9.148;2023-04-16T06:08:15;6.60;99.90
4828;DHT22;2428;48.732;9.148;2023-04-16T06:10:40;6.70;99.90
4828;DHT22;2428;48.732;9.148;2023-04-16T06:13:06;6.70;99.90
4828;DHT22;2428;48.732;9.148;2023-04-16T06:15:31;6.70;99.90
4828;DHT22;2428;48.732;9.148;2023-04-16T06:17:57;6.70;99.90
4828;DHT22;2428;48.732;9.148;2023-04-16T06:20:23;6.70;99.90
4828;DHT22;2428;48.732;9.148;2023-04-16T06:22:48;6.60;99.90
4828;DHT22;2428;48.732;9.148;2023-04-16T06:25:14;6.60;99.90
4828;DHT22;2428;48.732;9.148;2023-04-16T06:27:40;6.60;99.90
4828;DHT22;2428;48.732;9.148;2023-04-16T06:30:11;6.70;99.90
4828;DHT22;2428;48.732;9.148;2023-04-16T06:32:37;6.70;99.90
4828;DHT22;2428;48.732;9.148;2023-04-16T06:35:03;6.60;99.90
4828;DHT22;2428;48.732;9.148;2023-04-16T06:37:28;6.60;99.90
4828;DHT22;2428;48.732;9.148;2023-04-16T06:39:54;6.70;99.90
4828;DHT22;2428;48.732;9.148;2023-04-16T06:42:19;6.70;99.90
4828;DHT22;2428;48.732;9.148;2023-04-16T06:44:45;6.70;99.90
4828;DHT22;2428;48.732;9.148;2023-04-16T06:47:11;6.70;99.90
4828;DHT22;2428;48.732;9.148;2023-04-16T06:49:36;6.70;99.90
4828;DHT22;2428;48.732;9.148;2023-04-16T06:52:03;6.70;99.90
4828;DHT22;2428;48.732;9.148;2023-04-16T06:54:29;6.70;99.90
4828;DHT22;2428;48.732;9.148;2023-04-16T06:56:55;6.70;99.90
4828;DHT22;2428;48.732;9.148;2023-04-16T06:59:20;6.70;99.90
4828;DHT22;2428;48.732;9.148;2023-04-16T07:01:46;6.70;99.90
4828;DHT22;2428;48.732;9.148;2023-04-16T07:04:12;6.70;99.90
4828;DHT22;2428;48.732;9.148;2023-04-16T07:06:37;6.70;99.90
4828;DHT22;2428;48.732;9.148;2023-04-16T07:09:03;6.70;99.90
4828;DHT22;2428;48.732;9.148;2023-04-16T07:11:29;6.70;99.90
4828;DHT22;2428;48.732;9.148;2023-04-16T07:13:54;6.80;99.90
4828;DHT22;2428;48.732;9.148;2023-04-16T07:16:20;6.80;99.90
4828;DHT22;2428;48.732;9.148;2023-04-16T07:18:45;6.80;99.90
4828;DHT22;2428;48.732;9.148;2023-04-16T07:21:11;6.80;99.90
4828;DHT22;2428;48.732;9.148;2023-04-16T07:23:36;6.80;99.90
4828;DHT22;2428;48.732;9.148;2023-04-16T07:26:02;6.80;99.90
4828;DHT22;2428;48.732;9.148;2023-04-16T07:28:27;6.80;99.90
4828;DHT22;2428;48.732;9.148;2023-04-16T07:30:53;6.90;99.90
4828;DHT22;2428;48.732;9.148;2023-04-16T07:33:19;6.90;99.90
4828;DHT22;2428;48.732;9.148;2023-04-16T07:35:44;6.90;99.90
4828;DHT22;2428;48.732;9.148;2023-04-16T07:38:10;6.90;99.90
4828;DHT22;2428;48.732;9.148;2023-04-16T07:40:36;6.90;99.90
4828;DHT22;2428;48.732;9.148;2023-04-16T07:43:01;7.00;99.90
4828;DHT22;2428;48.732;9.148;2023-04-16T07:45:27;7.00;99.90
4828;DHT22;2428;48.732;9.148;2023-04-16T07:47:53;7.00;99.90
4828;DHT22;2428;48.732;9.148;2023-04-16T07:50:18;7.10;99.90
4828;DHT22;2428;48.732;9.148;2023-04-16T07:52:45;7.00;99.90
4828;DHT22;2428;48.732;9.148;2023-04-16T07:55:11;7.10;99.90
4828;DHT22;2428;48.732;9.148;2023-04-16T07:57:36;7.10;99.90
4828;DHT22;2428;48.732;9.148;2023-04-16T08:00:02;7.10;99.90
4828;DHT22;2428;48.732;9.148;2023-04-16T08:02:32;7.10;99.90
4828;DHT22;2428;48.732;9.148;2023-04-16T08:04:58;7.10;99.90
4828;DHT22;2428;48.732;9.148;2023-04-16T08:07:23;7.00;99.90
4828;DHT22;2428;48.732;9.148;2023-04-16T08:09:52;7.00;99.90
4828;DHT22;2428;48.732;9.148;2023-04-16T08:12:18;7.00;99.90
4828;DHT22;2428;48.732;9.148;2023-04-16T08:14:45;7.10;99.90
4828;DHT22;2428;48.732;9.148;2023-04-16T08:17:12;7.10;99.90
4828;DHT22;2428;48.732;9.148;2023-04-16T08:19:37;7.10;99.90
4828;DHT22;2428;48.732;9.148;2023-04-16T08:22:03;7.10;99.90
4828;DHT22;2428;48.732;9.148;2023-04-16T08:24:29;7.10;99.90
4828;DHT22;2428;48.732;9.148;2023-04-16T08:26:54;7.20;99.90
4828;DHT22;2428;48.732;9.148;2023-04-16T08:29:20;7.10;99.90
4828;DHT22;2428;48.732;9.148;2023-04-16T08:31:46;7.10;99.90
4828;DHT22;2428;48.732;9.148;2023-04-16T08:34:12;7.10;99.90
4828;DHT22;2428;48.732;9.148;2023-04-16T08:36:39;7.10;99.90
4828;DHT22;2428;48.732;9.148;2023-04-16T08:39:05;7.10;99.90
4828;DHT22;2428;48.732;9.148;2023-04-16T08:41:32;7.10;99.90
4828;DHT22;2428;48.732;9.148;2023-04-16T08:43:59;7.10;99.90
4828;DHT22;2428;48.732;9.148;2023-04-16T08:46:28;7.10;99.90
4828;DHT22;2428;48.732;9.148;2023-04-16T08:48:57;7.20;99.90
4828;DHT22;2428;48.732;9.148;2023-04-16T08:51:24;7.20;99.90
4828;DHT22;2428;48.732;9.148;2023-04-16T08:53:56;7.20;99.90
4828;DHT22;2428;48.732;9.148;2023-04-16T08:56:24;7.30;99.90
4828;DHT22;2428;48.732;9.148;2023-04-16T08:58:53;7.30;99.90
4828;DHT22;2428;48.732;9.148;2023-04-16T09:01:19;7.30;99.90
4828;DHT22;2428;48.732;9.148;2023-04-16T09:03:48;7.30;99.90
4828;DHT22;2428;48.732;9.148;2023-04-16T09:06:14;7.30;99.90
4828;DHT22;2428;48.732;9.148;2023-04-16T09:08:43;7.20;99.90
4828;DHT22;2428;48.732;9.148;2023-04-16T09:11:09;7.20;99.90
4828;DHT22;2428;48.732;9.148;2023-04-16T09:13:36;7.30;99.90
4828;DHT22;2428;48.732;9.148;2023-04-16T09:16:03;7.30;99.90
4828;DHT22;2428;48.732;9.148;2023-04-16T09:18:30;7.30;99.90
4828;DHT22;2428;48.732;9.148;2023-04-16T09:20:56;7.40;99.90
4828;DHT22;2428;48.732;9.148;2023-04-16T09:23:22;7.50;99.90
4828;DHT22;2428;48.732;9.148;2023-04-16T09:25:47;7.50;99.90
4828;DHT22;2428;48.732;9.148;2023-04-16T09:28:43;7.60;99.90
4828;DHT22;2428;48.732;9.148;2023-04-16T09:31:13;7.60;99.90
4828;DHT22;2428;48.732;9.148;2023-04-16T09:33:39;7.50;99.90
4828;DHT22;2428;48.732;9.148;2023-04-16T09:36:05;7.50;99.90
4828;DHT22;2428;48.732;9.148;2023-04-16T09:39:01;7.50;99.90
4828;DHT22;2428;48.732;9.148;2023-04-16T09:41:32;7.60;99.90
4828;DHT22;2428;48.732;9.148;2023-04-16T09:44:01;7.60;99.90
4828;DHT22;2428;48.732;9.148;2023-04-16T09:46:33;7.60;99.90
4828;DHT22;2428;48.732;9.148;2023-04-16T09:49:04;7.60;99.90
4828;DHT22;2428;48.732;9.148;2023-04-16T09:51:36;7.50;99.90
4828;DHT22;2428;48.732;9.148;2023-04-16T09:54:04;7.50;99.90
4828;DHT22;2428;48.732;9.148;2023-04-16T09:56:30;7.60;99.90
4828;DHT22;2428;48.732;9.148;2023-04-16T09:58:58;7.60;99.90
4828;DHT22;2428;48.732;9.148;2023-04-16T10:01:24;7.60;99.90
4828;DHT22;2428;48.732;9.148;2023-04-16T10:03:53;7.60;99.90
4828;DHT22;2428;48.732;9.148;2023-04-16T10:06:20;7.60;99.90
4828;DHT22;2428;48.732;9.148;2023-04-16T10:11:13;7.70;99.90
4828;DHT22;2428;48.732;9.148;2023-04-16T10:13:39;7.70;99.90
4828;DHT22;2428;48.732;9.148;2023-04-16T10:16:07;7.70;99.90
4828;DHT22;2428;48.732;9.148;2023-04-16T10:18:35;7.60;99.90
4828;DHT22;2428;48.732;9.148;2023-04-16T10:21:02;7.60;99.90
4828;DHT22;2428;48.732;9.148;2023-04-16T10:23:28;7.60;99.90
4828;DHT22;2428;48.732;9.148;2023-04-16T10:25:54;7.50;99.90
4828;DHT22;2428;48.732;9.148;2023-04-16T10:28:20;7.50;99.90
4828;DHT22;2428;48.732;9.148;2023-04-16T10:30:48;7.50;99.90
4828;DHT22;2428;48.732;9.148;2023-04-16T10:33:22;7.50;99.90
4828;DHT22;2428;48.732;9.148;2023-04-16T10:35:49;7.60;99.90
4828;DHT22;2428;48.732;9.148;2023-04-16T10:38:23;7.60;99.90
4828;DHT22;2428;48.732;9.148;2023-04-16T10:40:48;7.60;99.90
4828;DHT22;2428;48.732;9.148;2023-04-16T10:43:17;7.60;99.90
4828;DHT22;2428;48.732;9.148;2023-04-16T10:45:44;7.70;99.90
4828;DHT22;2428;48.732;9.148;2023-04-16T10:48:09;7.70;99.90
4828;DHT22;2428;48.732;9.148;2023-04-16T10:50:36;7.70;99.90
4828;DHT22;2428;48.732;9.148;2023-04-16T10:53:24;7.70;99.90
4828;DHT22;2428;48.732;9.148;2023-04-16T10:58:34;7.70;99.90
4828;DHT22;2428;48.732;9.148;2023-04-16T11:01:05;7.70;99.90
4828;DHT22;2428;48.732;9.148;2023-04-16T11:03:30;7.70;99.90
4828;DHT22;2428;48.732;9.148;2023-04-16T11:06:13;7.70;99.90
4828;DHT22;2428;48.732;9.148;2023-04-16T11:08:39;7.80;99.90
4828;DHT22;2428;48.732;9.148;2023-04-16T11:11:08;7.90;99.90
4828;DHT22;2428;48.732;9.148;2023-04-16T11:13:35;7.90;99.90
4828;DHT22;2428;48.732;9.148;2023-04-16T11:16:01;7.90;99.90
4828;DHT22;2428;48.732;9.148;2023-04-16T11:18:27;7.90;99.90
4828;DHT22;2428;48.732;9.148;2023-04-16T11:20:53;8.00;99.90
4828;DHT22;2428;48.732;9.148;2023-04-16T11:23:18;7.90;99.90
4828;DHT22;2428;48.732;9.148;2023-04-16T11:25:44;7.90;99.90
4828;DHT22;2428;48.732;9.148;2023-04-16T11:28:10;7.80;99.90
4828;DHT22;2428;48.732;9.148;2023-04-16T11:30:37;7.80;99.90
4828;DHT22;2428;48.732;9.148;2023-04-16T11:33:10;7.80;99.90
4828;DHT22;2428;48.732;9.148;2023-04-16T11:35:36;7.80;99.90
4828;DHT22;2428;48.732;9.148;2023-04-16T11:38:04;7.80;99.90
4828;DHT22;2428;48.732;9.148;2023-04-16T11:40:31;7.80;99.90
4828;DHT22;2428;48.732;9.148;2023-04-16T11:43:16;7.90;99.90
4828;DHT22;2428;48.732;9.148;2023-04-16T11:46:03;7.80;99.90
4828;DHT22;2428;48.732;9.148;2023-04-16T11:48:52;7.80;99.90
4828;DHT22;2428;48.732;9.148;2023-04-16T11:51:18;7.80;99.90
4828;DHT22;2428;48.732;9.148;2023-04-16T11:53:52;7.80;99.90
4828;DHT22;2428;48.732;9.148;2023-04-16T11:56:28;7.80;99.90
4828;DHT22;2428;48.732;9.148;2023-04-16T12:01:41;8.00;99.90
4828;DHT22;2428;48.732;9.148;2023-04-16T12:04:07;8.10;99.90
4828;DHT22;2428;48.732;9.148;2023-04-16T12:06:33;8.10;99.90
4828;DHT22;2428;48.732;9.148;2023-04-16T12:09:22;8.10;99.90
4828;DHT22;2428;48.732;9.148;2023-04-16T12:11:48;8.10;99.90
4828;DHT22;2428;48.732;9.148;2023-04-16T12:14:13;8.10;99.90
4828;DHT22;2428;48.732;9.148;2023-04-16T12:16:39;8.00;99.90
4828;DHT22;2428;48.732;9.148;2023-04-16T12:19:05;8.00;99.90
4828;DHT22;2428;48.732;9.148;2023-04-16T12:21:42;7.90;99.90
4828;DHT22;2428;48.732;9.148;2023-04-16T12:24:09;7.90;99.90
4828;DHT22;2428;48.732;9.148;2023-04-16T12:31:45;8.00;99.90
4828;DHT22;2428;48.732;9.148;2023-04-16T12:34:11;8.00;99.90
4828;DHT22;2428;48.732;9.148;2023-04-16T12:36:37;8.00;99.90
4828;DHT22;2428;48.732;9.148;2023-04-16T12:39:03;7.90;99.90
4828;DHT22;2428;48.732;9.148;2023-04-16T12:41:29;7.90;99.90
4828;DHT22;2428;48.732;9.148;2023-04-16T12:44:11;7.90;99.90
4828;DHT22;2428;48.732;9.148;2023-04-16T12:46:41;7.90;99.90
4828;DHT22;2428;48.732;9.148;2023-04-16T12:49:07;8.00;99.90
4828;DHT22;2428;48.732;9.148;2023-04-16T12:51:34;7.90;99.90
4828;DHT22;2428;48.732;9.148;2023-04-16T12:54:02;7.90;99.90
4828;DHT22;2428;48.732;9.148;2023-04-16T12:56:28;7.90;99.90
4828;DHT22;2428;48.732;9.148;2023-04-16T12:58:54;7.90;99.90
4828;DHT22;2428;48.732;9.148;2023-04-16T13:01:20;7.90;99.90
4828;DHT22;2428;48.732;9.148;2023-04-16T13:03:46;7.90;99.90
4828;DHT22;2428;48.732;9.148;2023-04-16T13:06:13;8.00;99.90
4828;DHT22;2428;48.732;9.148;2023-04-16T13:08:39;7.90;99.90
4828;DHT22;2428;48.732;9.148;2023-04-16T13:11:05;8.00;99.90
4828;DHT22;2428;48.732;9.148;2023-04-16T13:13:31;8.00;99.90
4828;DHT22;2428;48.732;9.148;2023-04-16T13:15:57;7.90;99.90
4828;DHT22;2428;48.732;9.148;2023-04-16T13:18:24;7.90;99.90
4828;DHT22;2428;48.732;9.148;2023-04-16T13:20:50;8.00;99.90
4828;DHT22;2428;48.732;9.148;2023-04-16T13:23:15;8.00;99.90
4828;DHT22;2428;48.732;9.148;2023-04-16T13:25:41;8.00;99.90
4828;DHT22;2428;48.732;9.148;2023-04-16T13:28:07;8.00;99.90
4828;DHT22;2428;48.732;9.148;2023-04-16T13:30:32;8.00;99.90
4828;DHT22;2428;48.732;9.148;2023-04-16T13:32:58;8.10;99.90
4828;DHT22;2428;48.732;9.148;2023-04-16T13:35:25;8.00;99.90
4828;DHT22;2428;48.732;9.148;2023-04-16T13:37:51;8.10;99.90
4828;DHT22;2428;48.732;9.148;2023-04-16T13:40:17;8.10;99.90
4828;DHT22;2428;48.732;9.148;2023-04-16T13:42:42;8.10;99.90
4828;DHT22;2428;48.732;9.148;2023-04-16T13:45:08;8.10;99.90
4828;DHT22;2428;48.732;9.148;2023-04-16T13:47:34;8.10;99.90
4828;DHT22;2428;48.732;9.148;2023-04-16T13:50:00;8.10;99.90
4828;DHT22;2428;48.732;9.148;2023-04-16T13:52:26;8.00;99.90
4828;DHT22;2428;48.732;9.148;2023-04-16T13:54:51;8.10;99.90
4828;DHT22;2428;48.732;9.148;2023-04-16T13:57:17;8.10;99.90
4828;DHT22;2428;48.732;9.148;2023-04-16T13:59:44;8.10;99.90
4828;DHT22;2428;48.732;9.148;2023-04-16T14:02:10;8.10;99.90
4828;DHT22;2428;48.732;9.148;2023-04-16T14:04:36;8.10;99.90
4828;DHT22;2428;48.732;9.148;2023-04-16T14:07:02;8.20;99.90
4828;DHT22;2428;48.732;9.148;2023-04-16T14:09:27;8.10;99.90
4828;DHT22;2428;48.732;9.148;2023-04-16T14:11:54;8.10;99.90
4828;DHT22;2428;48.732;9.148;2023-04-16T14:14:20;8.10;99.90
4828;DHT22;2428;48.732;9.148;2023-04-16T14:16:45;8.10;99.90
4828;DHT22;2428;48.732;9.148;2023-04-16T14:19:11;8.10;99.90
4828;DHT22;2428;48.732;9.148;2023-04-16T14:21:36;8.10;99.90
4828;DHT22;2428;48.732;9.148;2023-04-16T14:24:02;8.20;99.90
4828;DHT22;2428;48.732;9.148;2023-04-16T14:26:28;8.10;99.90
4828;DHT22;2428;48.732;9.148;2023-04-16T14:28:53;8.10;99.90
4828;DHT22;2428;48.732;9.148;2023-04-16T14:31:19;8.10;99.90
4828;DHT22;2428;48.732;9.148;2023-04-16T14:33:45;8.10;99.90
4828;DHT22;2428;48.732;9.148;2023-04-16T14:36:11;8.10;99.90
4828;DHT22;2428;48.732;9.148;2023-04-16T14:38:36;8.10;99.90
4828;DHT22;2428;48.732;9.148;2023-04-16T14:41:02;8.10;99.90
4828;DHT22;2428;48.732;9.148;2023-04-16T14:43:28;8.10;99.90
4828;DHT22;2428;48.732;9.148;2023-04-16T14:45:53;8.10;99.90
4828;DHT22;2428;48.732;9.148;2023-04-16T14:48:19;8.10;99.90
4828;DHT22;2428;48.732;9.148;2023-04-16T14:50:45;8.00;99.90
4828;DHT22;2428;48.732;9.148;2023-04-16T14:53:11;8.00;99.90
4828;DHT22;2428;48.732;9.148;2023-04-16T14:55:37;8.00;99.90
4828;DHT22;2428;48.732;9.148;2023-04-16T14:58:02;8.00;99.90
4828;DHT22;2428;48.732;9.148;2023-04-16T15:00:28;8.00;99.90
4828;DHT22;2428;48.732;9.148;2023-04-16T15:02:55;8.00;99.90
4828;DHT22;2428;48.732;9.148;2023-04-16T15:05:20;8.00;99.90
4828;DHT22;2428;48.732;9.148;2023-04-16T15:07:46;8.00;99.90
4828;DHT22;2428;48.732;9.148;2023-04-16T15:10:12;8.00;99.90
4828;DHT22;2428;48.732;9.148;2023-04-16T15:12:38;8.00;99.90
4828;DHT22;2428;48.732;9.148;2023-04-16T15:15:05;8.00;99.90
4828;DHT22;2428;48.732;9.148;2023-04-16T15:17:31;8.10;99.90
4828;DHT22;2428;48.732;9.148;2023-04-16T15:19:57;8.00;99.90
4828;DHT22;2428;48.732;9.148;2023-04-16T15:22:23;8.10;99.90
4828;DHT22;2428;48.732;9.148;2023-04-16T15:24:48;8.00;99.90
4828;DHT22;2428;48.732;9.148;2023-04-16T15:27:16;8.10;99.90
4828;DHT22;2428;48.732;9.148;2023-04-16T15:29:42;8.10;99.90
4828;DHT22;2428;48.732;9.148;2023-04-16T15:32:11;8.00;99.90
4828;DHT22;2428;48.732;9.148;2023-04-16T15:34:36;8.00;99.90
4828;DHT22;2428;48.732;9.148;2023-04-16T15:37:02;8.00;99.90
4828;DHT22;2428;48.732;9.148;2023-04-16T15:39:28;8.00;99.90
4828;DHT22;2428;48.732;9.148;2023-04-16T15:41:53;8.00;99.90
4828;DHT22;2428;48.732;9.148;2023-04-16T15:44:19;8.00;99.90
4828;DHT22;2428;48.732;9.148;2023-04-16T15:46:45;8.00;99.90
4828;DHT22;2428;48.732;9.148;2023-04-16T15:49:11;8.00;99.90
4828;DHT22;2428;48.732;9.148;2023-04-16T15:51:36;8.00;99.90
4828;DHT22;2428;48.732;9.148;2023-04-16T15:54:02;8.00;99.90
4828;DHT22;2428;48.732;9.148;2023-04-16T15:56:29;8.00;99.90
4828;DHT22;2428;48.732;9.148;2023-04-16T15:58:55;8.00;99.90
4828;DHT22;2428;48.732;9.148;2023-04-16T16:01:21;8.00;99.90
4828;DHT22;2428;48.732;9.148;2023-04-16T16:03:46;8.00;99.90
4828;DHT22;2428;48.732;9.148;2023-04-16T16:06:12;8.10;99.90
4828;DHT22;2428;48.732;9.148;2023-04-16T16:08:37;8.10;99.90
4828;DHT22;2428;48.732;9.148;2023-04-16T16:11:03;8.10;99.90
4828;DHT22;2428;48.732;9.148;2023-04-16T16:13:29;8.10;99.90
4828;DHT22;2428;48.732;9.148;2023-04-16T16:15:55;8.10;99.90
4828;DHT22;2428;48.732;9.148;2023-04-16T16:18:20;8.00;99.90
4828;DHT22;2428;48.732;9.148;2023-04-16T16:20:47;8.10;99.90
4828;DHT22;2428;48.732;9.148;2023-04-16T16:23:12;8.10;99.90
4828;DHT22;2428;48.732;9.148;2023-04-16T16:25:38;8.10;99.90